sensor_id;sensor_type;location;lat;lon;timestamp;pressure;altitude;pressure_sealevel;temperature;humidity
41945;BME280;63122;52.424;13.458;2023-02-14T00:00:19;103147.78;;;6.54;100.00
41945;BME280;63122;52.424;13.458;2023-02-14T00:03:09;103142.53;;;6.54;100.00
41945;BME280;63122;52.424;13.458;2023-02-14T00:10:56;103146.84;;;6.55;100.00
41945;BME280;63122;52.424;13.458;2023-02-14T00:13:36;103145.28;;;6.51;100.00
41945;BME280;63122;52.424;13.458;2023-02-14T00:20:28;103144.50;;;6.49;100.00
41945;BME280;63122;52.424;13.458;2023-02-14T00:22:47;103140.16;;;6.48;100.00
41945;BME280;63122;52.424;13.458;2023-02-14T00:26:31;103144.56;;;6.47;100.00
41945;BME280;63122;52.424;13.458;2023-02-14T00:28:46;103132.31;;;6.48;100.00
41945;BME280;63122;52.424;13.458;2023-02-14T00:32:08;103142.88;;;6.46;100.00
41945;BME280;63122;52.424;13.458;2023-02-14T00:41:15;103134.00;;;6.49;100.00
41945;BME280;63122;52.424;13.458;2023-02-14T00:43:57;103137.63;;;6.46;100.00
41945;BME280;63122;52.424;13.458;2023-02-14T00:46:50;103142.75;;;6.50;100.00
41945;BME280;63122;52.424;13.458;2023-02-14T00:54:01;103133.75;;;6.34;100.00
41945;BME280;63122;52.424;13.458;2023-02-14T01:00:25;103136.53;;;6.30;100.00
41945;BME280;63122;52.424;13.458;2023-02-14T01:08:22;103127.22;;;6.23;100.00
41945;BME280;63122;52.424;13.458;2023-02-14T01:09:57;103130.50;;;6.28;100.00
41945;BME280;63122;52.424;13.458;2023-02-14T01:12:14;103132.22;;;6.29;100.00
41945;BME280;63122;52.424;13.458;2023-02-14T01:14:09;103124.34;;;6.29;100.00
41945;BME280;63122;52.424;13.458;2023-02-14T01:16:10;103120.75;;;6.31;100.00
41945;BME280;63122;52.424;13.458;2023-02-14T01:18:06;103126.13;;;6.28;100.00
41945;BME280;63122;52.424;13.458;2023-02-14T01:20:02;103126.06;;;6.30;100.00
41945;BME280;63122;52.424;13.458;2023-02-14T01:21:57;103119.97;;;6.29;100.00
41945;BME280;63122;52.424;13.458;2023-02-14T01:23:54;103129.47;;;6.32;100.00
41945;BME280;63122;52.424;13.458;2023-02-14T01:25:49;103121.56;;;6.33;100.00
41945;BME280;63122;52.424;13.458;2023-02-14T01:27:44;103116.22;;;6.35;100.00
41945;BME280;63122;52.424;13.458;2023-02-14T01:29:39;103119.72;;;6.36;100.00
41945;BME280;63122;52.424;13.458;2023-02-14T01:31:37;103115.25;;;6.38;100.00
41945;BME280;63122;52.424;13.458;2023-02-14T01:33:33;103117.88;;;6.38;100.00
41945;BME280;63122;52.424;13.458;2023-02-14T01:35:28;103112.69;;;6.36;100.00
41945;BME280;63122;52.424;13.458;2023-02-14T01:38:57;103109.59;;;6.26;100.00
41945;BME280;63122;52.424;13.458;2023-02-14T01:41:46;103107.78;;;6.28;100.00
41945;BME280;63122;52.424;13.458;2023-02-14T01:48:04;103098.28;;;6.26;100.00
41945;BME280;63122;52.424;13.458;2023-02-14T01:50:56;103104.28;;;6.28;100.00
41945;BME280;63122;52.424;13.458;2023-02-14T01:57:07;103103.78;;;6.19;100.00
41945;BME280;63122;52.424;13.458;2023-02-14T02:02:43;103092.03;;;6.08;100.00
41945;BME280;63122;52.424;13.458;2023-02-14T02:04:45;103097.44;;;6.03;100.00
41945;BME280;63122;52.424;13.458;2023-02-14T02:06:43;103098.50;;;5.97;100.00
41945;BME280;63122;52.424;13.458;2023-02-14T02:08:42;103102.03;;;5.96;100.00
41945;BME280;63122;52.424;13.458;2023-02-14T02:10:41;103104.66;;;5.96;100.00
41945;BME280;63122;52.424;13.458;2023-02-14T02:12:37;103099.41;;;5.96;100.00
41945;BME280;63122;52.424;13.458;2023-02-14T02:14:36;103102.78;;;6.00;100.00
41945;BME280;63122;52.424;13.458;2023-02-14T02:17:07;103098.16;;;6.07;100.00
41945;BME280;63122;52.424;13.458;2023-02-14T02:20:02;103114.44;;;6.15;100.00
41945;BME280;63122;52.424;13.458;2023-02-14T02:22:32;103101.19;;;6.18;100.00
41945;BME280;63122;52.424;13.458;2023-02-14T02:24:45;103107.44;;;6.15;100.00
41945;BME280;63122;52.424;13.458;2023-02-14T02:27:03;103102.84;;;6.21;100.00
41945;BME280;63122;52.424;13.458;2023-02-14T02:32:01;103100.38;;;6.17;100.00
41945;BME280;63122;52.424;13.458;2023-02-14T02:34:23;103104.69;;;6.18;100.00
41945;BME280;63122;52.424;13.458;2023-02-14T02:38:54;103100.22;;;6.21;100.00
41945;BME280;63122;52.424;13.458;2023-02-14T02:41:00;103096.69;;;6.22;100.00
41945;BME280;63122;52.424;13.458;2023-02-14T02:43:14;103091.94;;;6.09;100.00
41945;BME280;63122;52.424;13.458;2023-02-14T02:45:19;103100.59;;;6.11;100.00
41945;BME280;63122;52.424;13.458;2023-02-14T02:47:27;103102.91;;;6.19;100.00
41945;BME280;63122;52.424;13.458;2023-02-14T02:49:30;103104.75;;;6.17;100.00
41945;BME280;63122;52.424;13.458;2023-02-14T02:51:47;103102.19;;;6.15;100.00
41945;BME280;63122;52.424;13.458;2023-02-14T02:54:02;103102.19;;;6.15;100.00
41945;BME280;63122;52.424;13.458;2023-02-14T02:56:07;103095.03;;;6.19;100.00
41945;BME280;63122;52.424;13.458;2023-02-14T02:58:23;103091.50;;;6.20;100.00
41945;BME280;63122;52.424;13.458;2023-02-14T03:00:21;103100.28;;;6.19;100.00
41945;BME280;63122;52.424;13.458;2023-02-14T03:02:19;103094.91;;;6.22;100.00
41945;BME280;63122;52.424;13.458;2023-02-14T03:04:15;103099.19;;;6.25;100.00
41945;BME280;63122;52.424;13.458;2023-02-14T03:06:24;103095.66;;;6.26;100.00
41945;BME280;63122;52.424;13.458;2023-02-14T03:08:22;103101.81;;;6.25;100.00
41945;BME280;63122;52.424;13.458;2023-02-14T03:10:19;103099.22;;;6.23;100.00
41945;BME280;63122;52.424;13.458;2023-02-14T03:12:25;103098.56;;;6.18;100.00
41945;BME280;63122;52.424;13.458;2023-02-14T03:14:25;103100.41;;;6.16;100.00
41945;BME280;63122;52.424;13.458;2023-02-14T03:16:34;103102.06;;;6.18;100.00
41945;BME280;63122;52.424;13.458;2023-02-14T03:18:42;103096.75;;;6.20;100.00
41945;BME280;63122;52.424;13.458;2023-02-14T03:20:43;103094.19;;;6.18;100.00
41945;BME280;63122;52.424;13.458;2023-02-14T03:22:48;103094.25;;;6.17;100.00
41945;BME280;63122;52.424;13.458;2023-02-14T03:24:58;103089.78;;;6.19;100.00
41945;BME280;63122;52.424;13.458;2023-02-14T03:27:02;103090.53;;;6.23;100.00
41945;BME280;63122;52.424;13.458;2023-02-14T03:29:07;103097.34;;;6.27;100.00
41945;BME280;63122;52.424;13.458;2023-02-14T03:31:09;103091.38;;;6.23;100.00
41945;BME280;63122;52.424;13.458;2023-02-14T03:33:11;103091.50;;;6.20;100.00
41945;BME280;63122;52.424;13.458;2023-02-14T03:35:14;103087.13;;;6.21;100.00
41945;BME280;63122;52.424;13.458;2023-02-14T03:37:14;103094.00;;;6.23;100.00
41945;BME280;63122;52.424;13.458;2023-02-14T03:39:15;103088.69;;;6.25;100.00
41945;BME280;63122;52.424;13.458;2023-02-14T03:41:19;103090.28;;;6.29;100.00
41945;BME280;63122;52.424;13.458;2023-02-14T03:43:19;103091.84;;;6.33;100.00
41945;BME280;63122;52.424;13.458;2023-02-14T03:45:22;103090.16;;;6.32;100.00
41945;BME280;63122;52.424;13.458;2023-02-14T03:47:21;103090.22;;;6.30;100.00
41945;BME280;63122;52.424;13.458;2023-02-14T03:49:20;103094.59;;;6.30;100.00
41945;BME280;63122;52.424;13.458;2023-02-14T03:51:19;103092.09;;;6.27;100.00
41945;BME280;63122;52.424;13.458;2023-02-14T03:53:24;103097.41;;;6.25;100.00
41945;BME280;63122;52.424;13.458;2023-02-14T03:55:25;103096.56;;;6.25;100.00
41945;BME280;63122;52.424;13.458;2023-02-14T03:57:28;103094.84;;;6.24;100.00
41945;BME280;63122;52.424;13.458;2023-02-14T03:59:26;103091.44;;;6.22;100.00
41945;BME280;63122;52.424;13.458;2023-02-14T04:01:26;103088.03;;;6.19;100.00
41945;BME280;63122;52.424;13.458;2023-02-14T04:03:26;103081.94;;;6.19;100.00
41945;BME280;63122;52.424;13.458;2023-02-14T04:05:25;103086.25;;;6.20;100.00
41945;BME280;63122;52.424;13.458;2023-02-14T04:07:22;103087.31;;;6.16;100.00
41945;BME280;63122;52.424;13.458;2023-02-14T04:09:18;103084.69;;;6.16;100.00
41945;BME280;63122;52.424;13.458;2023-02-14T04:11:13;103094.25;;;6.17;100.00
41945;BME280;63122;52.424;13.458;2023-02-14T04:13:11;103080.31;;;6.16;100.00
41945;BME280;63122;52.424;13.458;2023-02-14T04:15:07;103082.00;;;6.17;100.00
41945;BME280;63122;52.424;13.458;2023-02-14T04:17:02;103081.16;;;6.17;100.00
41945;BME280;63122;52.424;13.458;2023-02-14T04:19:10;103082.97;;;6.15;100.00
41945;BME280;63122;52.424;13.458;2023-02-14T04:21:17;103071.84;;;6.10;100.00
41945;BME280;63122;52.424;13.458;2023-02-14T04:23:12;103088.41;;;6.10;100.00
41945;BME280;63122;52.424;13.458;2023-02-14T04:25:08;103076.91;;;6.14;100.00
41945;BME280;63122;52.424;13.458;2023-02-14T04:27:03;103086.34;;;6.18;100.00
41945;BME280;63122;52.424;13.458;2023-02-14T04:29:06;103080.34;;;6.15;100.00
41945;BME280;63122;52.424;13.458;2023-02-14T04:31:02;103087.31;;;6.16;100.00
41945;BME280;63122;52.424;13.458;2023-02-14T04:32:58;103083.78;;;6.17;100.00
41945;BME280;63122;52.424;13.458;2023-02-14T04:34:53;103085.56;;;6.16;100.00
41945;BME280;63122;52.424;13.458;2023-02-14T04:36:51;103079.44;;;6.16;100.00
41945;BME280;63122;52.424;13.458;2023-02-14T04:38:45;103079.56;;;6.13;100.00
41945;BME280;63122;52.424;13.458;2023-02-14T04:40:41;103077.91;;;6.10;100.00
41945;BME280;63122;52.424;13.458;2023-02-14T04:42:36;103072.81;;;6.07;100.00
41945;BME280;63122;52.424;13.458;2023-02-14T04:44:34;103070.44;;;6.01;100.00
41945;BME280;63122;52.424;13.458;2023-02-14T04:46:29;103076.69;;;5.97;100.00
41945;BME280;63122;52.424;13.458;2023-02-14T04:48:24;103080.28;;;5.94;100.00
41945;BME280;63122;52.424;13.458;2023-02-14T04:50:20;103072.78;;;5.85;100.00
41945;BME280;63122;52.424;13.458;2023-02-14T04:52:17;103070.06;;;5.88;100.00
41945;BME280;63122;52.424;13.458;2023-02-14T04:54:13;103071.84;;;5.87;100.00
41945;BME280;63122;52.424;13.458;2023-02-14T04:56:08;103068.34;;;5.87;100.00
41945;BME280;63122;52.424;13.458;2023-02-14T04:58:03;103072.75;;;5.86;100.00
41945;BME280;63122;52.424;13.458;2023-02-14T05:00:01;103067.38;;;5.89;100.00
41945;BME280;63122;52.424;13.458;2023-02-14T05:01:56;103062.00;;;5.93;100.00
41945;BME280;63122;52.424;13.458;2023-02-14T05:03:52;103062.72;;;5.96;100.00
41945;BME280;63122;52.424;13.458;2023-02-14T05:05:48;103064.50;;;5.96;100.00
41945;BME280;63122;52.424;13.458;2023-02-14T05:07:43;103064.56;;;5.94;100.00
41945;BME280;63122;52.424;13.458;2023-02-14T05:09:39;103059.28;;;5.96;100.00
41945;BME280;63122;52.424;13.458;2023-02-14T05:11:36;103062.38;;;5.83;100.00
41945;BME280;63122;52.424;13.458;2023-02-14T05:13:32;103064.56;;;5.72;100.00
41945;BME280;63122;52.424;13.458;2023-02-14T05:15:36;103068.09;;;5.71;100.00
41945;BME280;63122;52.424;13.458;2023-02-14T05:17:32;103066.41;;;5.70;100.00
41945;BME280;63122;52.424;13.458;2023-02-14T05:19:29;103061.03;;;5.73;100.00
41945;BME280;63122;52.424;13.458;2023-02-14T05:21:26;103060.88;;;5.78;100.00
41945;BME280;63122;52.424;13.458;2023-02-14T05:23:26;103061.56;;;5.81;100.00
41945;BME280;63122;52.424;13.458;2023-02-14T05:25:21;103059.66;;;5.86;100.00
41945;BME280;63122;52.424;13.458;2023-02-14T05:27:18;103059.53;;;5.89;100.00
41945;BME280;63122;52.424;13.458;2023-02-14T05:29:13;103052.50;;;5.90;100.00
41945;BME280;63122;52.424;13.458;2023-02-14T05:31:11;103047.25;;;5.90;100.00
41945;BME280;63122;52.424;13.458;2023-02-14T05:33:06;103047.13;;;5.93;100.00
41945;BME280;63122;52.424;13.458;2023-02-14T05:35:02;103050.53;;;5.95;100.00
41945;BME280;63122;52.424;13.458;2023-02-14T05:36:56;103047.88;;;5.97;100.00
41945;BME280;63122;52.424;13.458;2023-02-14T05:38:53;103048.91;;;5.93;100.00
41945;BME280;63122;52.424;13.458;2023-02-14T05:40:48;103038.78;;;5.83;100.00
41945;BME280;63122;52.424;13.458;2023-02-14T05:42:44;103048.56;;;5.80;100.00
41945;BME280;63122;52.424;13.458;2023-02-14T05:44:40;103054.72;;;5.79;100.00
41945;BME280;63122;52.424;13.458;2023-02-14T05:46:38;103047.69;;;5.79;100.00
41945;BME280;63122;52.424;13.458;2023-02-14T05:48:33;103052.22;;;5.75;100.00
41945;BME280;63122;52.424;13.458;2023-02-14T05:50:29;103064.19;;;5.81;100.00
41945;BME280;63122;52.424;13.458;2023-02-14T05:52:24;103059.75;;;5.83;100.00
41945;BME280;63122;52.424;13.458;2023-02-14T05:54:19;103059.69;;;5.85;100.00
41945;BME280;63122;52.424;13.458;2023-02-14T05:56:14;103052.88;;;5.81;100.00
41945;BME280;63122;52.424;13.458;2023-02-14T05:58:09;103049.66;;;5.74;100.00
41945;BME280;63122;52.424;13.458;2023-02-14T06:00:07;103055.69;;;5.76;100.00
41945;BME280;63122;52.424;13.458;2023-02-14T06:02:04;103054.84;;;5.75;100.00
41945;BME280;63122;52.424;13.458;2023-02-14T06:04:00;103043.44;;;5.76;100.00
41945;BME280;63122;52.424;13.458;2023-02-14T06:05:55;103052.09;;;5.79;100.00
41945;BME280;63122;52.424;13.458;2023-02-14T06:07:51;103048.47;;;5.81;100.00
41945;BME280;63122;52.424;13.458;2023-02-14T06:09:47;103049.34;;;5.82;100.00
41945;BME280;63122;52.424;13.458;2023-02-14T06:11:42;103054.41;;;5.86;100.00
41945;BME280;63122;52.424;13.458;2023-02-14T06:13:38;103060.44;;;5.88;100.00
41945;BME280;63122;52.424;13.458;2023-02-14T06:15:34;103057.69;;;5.91;100.00
41945;BME280;63122;52.424;13.458;2023-02-14T06:17:32;103054.19;;;5.91;100.00
41945;BME280;63122;52.424;13.458;2023-02-14T06:19:28;103059.31;;;5.94;100.00
41945;BME280;63122;52.424;13.458;2023-02-14T06:21:23;103052.25;;;5.96;100.00
41945;BME280;63122;52.424;13.458;2023-02-14T06:23:20;103059.31;;;5.94;100.00
41945;BME280;63122;52.424;13.458;2023-02-14T06:25:16;103060.19;;;5.95;100.00
41945;BME280;63122;52.424;13.458;2023-02-14T06:27:11;103056.66;;;5.96;100.00
41945;BME280;63122;52.424;13.458;2023-02-14T06:29:06;103054.81;;;5.98;100.00
41945;BME280;63122;52.424;13.458;2023-02-14T06:31:01;103054.94;;;5.95;100.00
41945;BME280;63122;52.424;13.458;2023-02-14T06:32:59;103054.06;;;5.94;100.00
41945;BME280;63122;52.424;13.458;2023-02-14T06:34:54;103059.44;;;5.91;100.00
41945;BME280;63122;52.424;13.458;2023-02-14T06:36:49;103060.53;;;5.85;100.00
41945;BME280;63122;52.424;13.458;2023-02-14T06:38:45;103062.63;;;5.77;100.00
41945;BME280;63122;52.424;13.458;2023-02-14T06:40:40;103067.25;;;5.70;100.00
41945;BME280;63122;52.424;13.458;2023-02-14T06:42:35;103071.03;;;5.63;100.00
41945;BME280;63122;52.424;13.458;2023-02-14T06:44:31;103065.91;;;5.60;100.00
41945;BME280;63122;52.424;13.458;2023-02-14T06:46:26;103064.50;;;5.51;100.00
41945;BME280;63122;52.424;13.458;2023-02-14T06:48:24;103062.66;;;5.53;100.00
41945;BME280;63122;52.424;13.458;2023-02-14T06:50:19;103055.59;;;5.55;100.00
41945;BME280;63122;52.424;13.458;2023-02-14T06:52:14;103055.59;;;5.55;100.00
41945;BME280;63122;52.424;13.458;2023-02-14T06:54:09;103059.91;;;5.56;100.00
41945;BME280;63122;52.424;13.458;2023-02-14T06:56:05;103051.06;;;5.60;100.00
41945;BME280;63122;52.424;13.458;2023-02-14T06:58:00;103062.44;;;5.59;100.00
41945;BME280;63122;52.424;13.458;2023-02-14T06:59:55;103051.91;;;5.61;100.00
41945;BME280;63122;52.424;13.458;2023-02-14T07:01:50;103065.19;;;5.79;100.00
41945;BME280;63122;52.424;13.458;2023-02-14T07:03:48;103062.00;;;5.93;100.00
41945;BME280;63122;52.424;13.458;2023-02-14T07:05:43;103058.28;;;5.76;100.00
41945;BME280;63122;52.424;13.458;2023-02-14T07:07:39;103063.78;;;5.92;100.00
41945;BME280;63122;52.424;13.458;2023-02-14T07:09:34;103060.19;;;5.72;100.00
41945;BME280;63122;52.424;13.458;2023-02-14T07:11:29;103062.50;;;5.58;100.00
41945;BME280;63122;52.424;13.458;2023-02-14T07:13:24;103054.63;;;5.58;100.00
41945;BME280;63122;52.424;13.458;2023-02-14T07:15:19;103055.38;;;5.61;100.00
41945;BME280;63122;52.424;13.458;2023-02-14T07:17:15;103050.03;;;5.65;100.00
41945;BME280;63122;52.424;13.458;2023-02-14T07:19:12;103050.84;;;5.65;100.00
41945;BME280;63122;52.424;13.458;2023-02-14T07:21:08;103056.84;;;5.69;100.00
41945;BME280;63122;52.424;13.458;2023-02-14T07:23:03;103049.72;;;5.72;100.00
41945;BME280;63122;52.424;13.458;2023-02-14T07:24:58;103053.94;;;5.76;100.00
41945;BME280;63122;52.424;13.458;2023-02-14T07:26:53;103053.00;;;5.78;100.00
41945;BME280;63122;52.424;13.458;2023-02-14T07:28:49;103059.03;;;5.80;100.00
41945;BME280;63122;52.424;13.458;2023-02-14T07:30:44;103059.81;;;5.82;100.00
41945;BME280;63122;52.424;13.458;2023-02-14T07:32:40;103054.50;;;5.83;100.00
41945;BME280;63122;52.424;13.458;2023-02-14T07:34:37;103057.88;;;5.87;100.00
41945;BME280;63122;52.424;13.458;2023-02-14T07:36:33;103063.09;;;5.87;100.00
41945;BME280;63122;52.424;13.458;2023-02-14T07:38:28;103059.44;;;5.91;100.00
41945;BME280;63122;52.424;13.458;2023-02-14T07:40:23;103059.44;;;5.91;100.00
41945;BME280;63122;52.424;13.458;2023-02-14T07:42:24;103060.44;;;5.88;100.00
41945;BME280;63122;52.424;13.458;2023-02-14T07:44:21;103055.13;;;5.90;100.00
41945;BME280;63122;52.424;13.458;2023-02-14T07:46:16;103058.34;;;5.97;100.00
41945;BME280;63122;52.424;13.458;2023-02-14T07:48:11;103056.66;;;5.96;100.00
41945;BME280;63122;52.424;13.458;2023-02-14T07:50:09;103054.94;;;5.95;100.00
41945;BME280;63122;52.424;13.458;2023-02-14T07:52:04;103052.25;;;5.96;100.00
41945;BME280;63122;52.424;13.458;2023-02-14T07:54:00;103052.13;;;5.99;100.00
41945;BME280;63122;52.424;13.458;2023-02-14T07:55:55;103055.59;;;6.01;100.00
41945;BME280;63122;52.424;13.458;2023-02-14T07:57:50;103052.88;;;6.03;100.00
41945;BME280;63122;52.424;13.458;2023-02-14T07:59:45;103050.13;;;6.06;100.00
41945;BME280;63122;52.424;13.458;2023-02-14T08:01:41;103051.78;;;6.09;100.00
41945;BME280;63122;52.424;13.458;2023-02-14T08:03:36;103045.75;;;6.07;100.00
41945;BME280;63122;52.424;13.458;2023-02-14T08:05:34;103052.97;;;6.01;100.00
41945;BME280;63122;52.424;13.458;2023-02-14T08:07:29;103054.72;;;6.01;100.00
41945;BME280;63122;52.424;13.458;2023-02-14T08:09:25;103061.66;;;6.02;100.00
41945;BME280;63122;52.424;13.458;2023-02-14T08:11:20;103064.25;;;6.03;100.00
41945;BME280;63122;52.424;13.458;2023-02-14T08:13:28;103064.09;;;6.07;100.00
41945;BME280;63122;52.424;13.458;2023-02-14T08:15:23;103064.25;;;6.03;100.00
41945;BME280;63122;52.424;13.458;2023-02-14T08:17:30;103065.16;;;6.02;100.00
41945;BME280;63122;52.424;13.458;2023-02-14T08:19:28;103064.38;;;5.99;100.00
41945;BME280;63122;52.424;13.458;2023-02-14T08:21:27;103067.81;;;6.01;100.00
41945;BME280;63122;52.424;13.458;2023-02-14T08:23:23;103070.53;;;5.98;100.00
41945;BME280;63122;52.424;13.458;2023-02-14T08:25:19;103067.91;;;5.98;100.00
41945;BME280;63122;52.424;13.458;2023-02-14T08:27:14;103070.59;;;5.96;100.00
41945;BME280;63122;52.424;13.458;2023-02-14T08:29:09;103073.22;;;5.96;100.00
41945;BME280;63122;52.424;13.458;2023-02-14T08:31:08;103075.63;;;6.02;100.00
41945;BME280;63122;52.424;13.458;2023-02-14T08:33:04;103083.38;;;6.05;100.00
41945;BME280;63122;52.424;13.458;2023-02-14T08:35:00;103083.28;;;6.07;100.00
41945;BME280;63122;52.424;13.458;2023-02-14T08:36:57;103085.06;;;6.07;100.00
41945;BME280;63122;52.424;13.458;2023-02-14T08:38:53;103081.47;;;6.09;100.00
41945;BME280;63122;52.424;13.458;2023-02-14T08:40:51;103079.69;;;6.10;100.00
41945;BME280;63122;52.424;13.458;2023-02-14T08:42:46;103087.44;;;6.13;100.00
41945;BME280;63122;52.424;13.458;2023-02-14T08:44:41;103081.09;;;6.18;100.00
41945;BME280;63122;52.424;13.458;2023-02-14T08:46:36;103089.66;;;6.22;100.00
41945;BME280;63122;52.424;13.458;2023-02-14T08:48:33;103087.78;;;6.26;100.00
41945;BME280;63122;52.424;13.458;2023-02-14T08:50:30;103096.25;;;6.32;100.00
41945;BME280;63122;52.424;13.458;2023-02-14T08:52:28;103089.09;;;6.36;100.00
41945;BME280;63122;52.424;13.458;2023-02-14T08:54:23;103092.50;;;6.38;100.00
41945;BME280;63122;52.424;13.458;2023-02-14T08:56:19;103080.56;;;6.31;100.00
41945;BME280;63122;52.424;13.458;2023-02-14T08:58:16;103083.47;;;6.25;100.00
41945;BME280;63122;52.424;13.458;2023-02-14T09:00:12;103083.66;;;6.41;100.00
41945;BME280;63122;52.424;13.458;2023-02-14T09:02:11;103082.63;;;6.45;100.00
41945;BME280;63122;52.424;13.458;2023-02-14T09:04:07;103085.19;;;6.46;100.00
41945;BME280;63122;52.424;13.458;2023-02-14T09:06:02;103085.50;;;6.39;100.00
41945;BME280;63122;52.424;13.458;2023-02-14T09:08:01;103087.22;;;6.40;100.00
41945;BME280;63122;52.424;13.458;2023-02-14T09:10:04;103082.88;;;6.39;100.00
41945;BME280;63122;52.424;13.458;2023-02-14T09:19:25;103085.38;;;6.42;100.00
41945;BME280;63122;52.424;13.458;2023-02-14T09:21:24;103086.16;;;6.44;100.00
41945;BME280;63122;52.424;13.458;2023-02-14T09:23:21;103092.28;;;6.44;100.00
41945;BME280;63122;52.424;13.458;2023-02-14T09:25:17;103098.53;;;6.40;100.00
41945;BME280;63122;52.424;13.458;2023-02-14T09:27:12;103087.03;;;6.44;100.00
41945;BME280;63122;52.424;13.458;2023-02-14T09:29:07;103090.56;;;6.43;100.00
41945;BME280;63122;52.424;13.458;2023-02-14T09:31:08;103091.41;;;6.44;100.00
41945;BME280;63122;52.424;13.458;2023-02-14T09:33:04;103092.06;;;6.49;100.00
41945;BME280;63122;52.424;13.458;2023-02-14T09:34:59;103095.19;;;6.37;100.00
41945;BME280;63122;52.424;13.458;2023-02-14T09:36:52;103091.19;;;6.28;100.00
41945;BME280;63122;52.424;13.458;2023-02-14T09:39:02;103086.56;;;6.34;100.00
41945;BME280;63122;52.424;13.458;2023-02-14T09:40:58;103091.19;;;6.28;100.00
41945;BME280;63122;52.424;13.458;2023-02-14T09:43:02;103090.94;;;6.34;100.00
41945;BME280;63122;52.424;13.458;2023-02-14T09:45:04;103086.88;;;6.47;100.00
41945;BME280;63122;52.424;13.458;2023-02-14T09:47:06;103092.97;;;6.48;100.00
41945;BME280;63122;52.424;13.458;2023-02-14T09:49:07;103091.13;;;6.50;100.00
41945;BME280;63122;52.424;13.458;2023-02-14T09:51:10;103092.13;;;6.47;100.00
41945;BME280;63122;52.424;13.458;2023-02-14T09:53:17;103097.44;;;6.46;100.00
41945;BME280;63122;52.424;13.458;2023-02-14T09:55:17;103094.81;;;6.46;100.00
41945;BME280;63122;52.424;13.458;2023-02-14T09:57:17;103098.28;;;6.46;100.00
41945;BME280;63122;52.424;13.458;2023-02-14T09:59:21;103102.41;;;6.52;100.00
41945;BME280;63122;52.424;13.458;2023-02-14T10:01:22;103098.63;;;6.59;100.00
41945;BME280;63122;52.424;13.458;2023-02-14T10:03:37;103101.91;;;6.65;100.00
41945;BME280;63122;52.424;13.458;2023-02-14T10:05:37;103108.97;;;6.62;100.00
41945;BME280;63122;52.424;13.458;2023-02-14T10:07:41;103100.38;;;6.59;100.00
41945;BME280;63122;52.424;13.458;2023-02-14T10:09:55;103092.78;;;6.53;100.00
41945;BME280;63122;52.424;13.458;2023-02-14T10:11:57;103097.94;;;6.54;100.00
41945;BME280;63122;52.424;13.458;2023-02-14T10:13:57;103092.66;;;6.56;100.00
41945;BME280;63122;52.424;13.458;2023-02-14T10:15:58;103090.91;;;6.56;100.00
41945;BME280;63122;52.424;13.458;2023-02-14T10:18:00;103089.84;;;6.60;100.00
41945;BME280;63122;52.424;13.458;2023-02-14T10:19:59;103096.19;;;6.55;100.00
41945;BME280;63122;52.424;13.458;2023-02-14T10:21:58;103089.72;;;6.63;100.00
41945;BME280;63122;52.424;13.458;2023-02-14T10:23:57;103092.09;;;6.68;100.00
41945;BME280;63122;52.424;13.458;2023-02-14T10:25:58;103094.63;;;6.71;100.00
41945;BME280;63122;52.424;13.458;2023-02-14T10:27:57;103086.63;;;6.74;100.00
41945;BME280;63122;52.424;13.458;2023-02-14T10:29:55;103089.16;;;6.76;100.00
41945;BME280;63122;52.424;13.458;2023-02-14T10:31:55;103083.91;;;6.76;100.00
41945;BME280;63122;52.424;13.458;2023-02-14T10:33:56;103088.97;;;6.81;100.00
41945;BME280;63122;52.424;13.458;2023-02-14T10:35:57;103084.56;;;6.81;100.00
41945;BME280;63122;52.424;13.458;2023-02-14T10:38:03;103083.63;;;6.82;100.00
41945;BME280;63122;52.424;13.458;2023-02-14T10:40:15;103074.00;;;6.83;100.00
41945;BME280;63122;52.424;13.458;2023-02-14T10:42:22;103074.97;;;6.80;100.00
41945;BME280;63122;52.424;13.458;2023-02-14T10:44:34;103073.97;;;6.84;100.00
41945;BME280;63122;52.424;13.458;2023-02-14T10:46:36;103084.16;;;6.90;100.00
41945;BME280;63122;52.424;13.458;2023-02-14T10:48:42;103082.53;;;6.88;100.00
41945;BME280;63122;52.424;13.458;2023-02-14T10:50:45;103078.63;;;6.77;100.00
41945;BME280;63122;52.424;13.458;2023-02-14T10:52:51;103079.06;;;6.67;100.00
41945;BME280;63122;52.424;13.458;2023-02-14T10:54:54;103078.06;;;6.69;100.00
41945;BME280;63122;52.424;13.458;2023-02-14T10:56:57;103076.97;;;6.75;100.00
41945;BME280;63122;52.424;13.458;2023-02-14T10:58:55;103081.09;;;6.81;100.00
41945;BME280;63122;52.424;13.458;2023-02-14T11:00:58;103074.66;;;6.88;100.00
41945;BME280;63122;52.424;13.458;2023-02-14T11:02:57;103074.00;;;6.83;100.00
41945;BME280;63122;52.424;13.458;2023-02-14T11:04:56;103073.81;;;6.87;100.00
41945;BME280;63122;52.424;13.458;2023-02-14T11:06:52;103073.69;;;6.90;100.00
41945;BME280;63122;52.424;13.458;2023-02-14T11:08:48;103072.03;;;6.88;100.00
41945;BME280;63122;52.424;13.458;2023-02-14T11:10:44;103074.75;;;6.86;100.00
41945;BME280;63122;52.424;13.458;2023-02-14T11:12:40;103077.09;;;6.93;100.00
41945;BME280;63122;52.424;13.458;2023-02-14T11:14:38;103074.50;;;6.91;100.00
41945;BME280;63122;52.424;13.458;2023-02-14T11:16:37;103066.44;;;6.96;100.00
41945;BME280;63122;52.424;13.458;2023-02-14T11:18:34;103069.22;;;6.93;100.00
41945;BME280;63122;52.424;13.458;2023-02-14T11:20:30;103065.06;;;6.87;100.00
41945;BME280;63122;52.424;13.458;2023-02-14T11:22:30;103063.31;;;6.87;100.00